createdAt,value
2023-03-13T00:00:02.687Z,9.43
2023-03-13T00:00:15.741Z,9.55
2023-03-13T00:00:27.866Z,7.50
2023-03-13T00:00:39.846Z,7.15
2023-03-13T00:00:53.248Z,9.75
2023-03-13T00:01:15.930Z,13.43
2023-03-13T00:01:40.718Z,10.50
2023-03-13T00:01:55.938Z,8.98
2023-03-13T00:02:07.958Z,8.20
2023-03-13T00:02:19.972Z,6.68
2023-03-13T00:02:32.175Z,5.82
2023-03-13T00:02:47.352Z,7.13
2023-03-13T00:02:59.323Z,8.63
2023-03-13T00:03:12.032Z,7.25
2023-03-13T00:03:23.972Z,6.25
2023-03-13T00:03:36.125Z,6.57
2023-03-13T00:03:51.469Z,7.25
2023-03-13T00:04:03.882Z,9.07
2023-03-13T00:04:15.917Z,11.48
2023-03-13T00:04:27.867Z,11.02
2023-03-13T00:04:39.885Z,9.45
2023-03-13T00:04:51.981Z,10.48
2023-03-13T00:05:04.274Z,9.05
2023-03-13T00:05:16.414Z,7.13
2023-03-13T00:05:28.383Z,7.28
2023-03-13T00:05:40.408Z,7.30
2023-03-13T00:05:58.797Z,6.90
2023-03-13T00:06:10.827Z,10.50
2023-03-13T00:06:25.523Z,11.15
2023-03-13T00:06:39.320Z,11.15
2023-03-13T00:06:53.844Z,12.48
2023-03-13T00:07:05.863Z,10.93
2023-03-13T00:07:17.809Z,10.15
2023-03-13T00:07:29.776Z,10.57
2023-03-13T00:07:41.782Z,11.35
2023-03-13T00:07:53.737Z,9.80
2023-03-13T00:08:05.706Z,8.48
2023-03-13T00:08:17.629Z,8.63
2023-03-13T00:08:30.232Z,7.18
2023-03-13T00:08:42.509Z,6.25
2023-03-13T00:08:55.641Z,7.22
2023-03-13T00:09:10.203Z,8.88
2023-03-13T00:09:23.450Z,7.97
2023-03-13T00:09:37.790Z,6.85
2023-03-13T00:09:49.958Z,7.25
2023-03-13T00:10:01.935Z,7.68
2023-03-13T00:10:14.146Z,6.85
2023-03-13T00:10:27.213Z,8.05
2023-03-13T00:10:40.503Z,8.27
2023-03-13T00:10:52.590Z,9.43
2023-03-13T00:11:06.608Z,10.90
2023-03-13T00:11:18.689Z,11.48
2023-03-13T00:11:31.137Z,10.65
2023-03-13T00:11:44.448Z,9.25
2023-03-13T00:11:56.661Z,9.23
2023-03-13T00:12:08.825Z,7.93
2023-03-13T00:12:20.763Z,8.90
2023-03-13T00:12:32.893Z,9.80
2023-03-13T00:12:44.855Z,11.02
2023-03-13T00:12:56.957Z,11.43
2023-03-13T00:13:09.222Z,7.78
2023-03-13T00:13:21.138Z,8.57
2023-03-13T00:13:35.323Z,9.45
2023-03-13T00:13:47.322Z,10.15
2023-03-13T00:14:02.353Z,10.70
2023-03-13T00:14:14.371Z,9.63
2023-03-13T00:14:26.434Z,9.45
2023-03-13T00:14:38.483Z,8.82
2023-03-13T00:14:50.380Z,10.02
2023-03-13T00:15:02.353Z,11.23
2023-03-13T00:15:14.512Z,10.23
2023-03-13T00:15:26.593Z,7.70
2023-03-13T00:15:38.514Z,6.82
2023-03-13T00:15:50.453Z,8.60
2023-03-13T00:16:04.661Z,10.25
2023-03-13T00:16:17.038Z,9.10
2023-03-13T00:16:33.284Z,7.28
2023-03-13T00:16:45.335Z,8.75
2023-03-13T00:16:57.401Z,9.10
2023-03-13T00:17:09.436Z,8.15
2023-03-13T00:17:21.465Z,9.30
2023-03-13T00:17:33.470Z,10.27
2023-03-13T00:17:45.647Z,9.85
2023-03-13T00:17:57.718Z,9.32
2023-03-13T00:18:11.673Z,9.30
2023-03-13T00:18:23.716Z,8.48
2023-03-13T00:18:35.992Z,10.20
2023-03-13T00:18:49.891Z,11.70
2023-03-13T00:19:01.895Z,10.02
2023-03-13T00:19:15.270Z,8.75
2023-03-13T00:19:27.196Z,8.88
2023-03-13T00:19:39.480Z,8.35
2023-03-13T00:19:55.599Z,9.25
2023-03-13T00:20:09.194Z,9.05
2023-03-13T00:20:21.302Z,8.95
2023-03-13T00:20:33.233Z,10.18
2023-03-13T00:20:47.787Z,9.52
2023-03-13T00:21:01.969Z,11.57
2023-03-13T00:21:14.649Z,11.65
2023-03-13T00:21:29.590Z,8.95
2023-03-13T00:21:41.777Z,7.10
2023-03-13T00:21:53.709Z,8.45
2023-03-13T00:22:05.730Z,8.52
2023-03-13T00:22:17.670Z,7.53
2023-03-13T00:22:29.892Z,7.07
2023-03-13T00:22:41.817Z,7.57
2023-03-13T00:22:53.867Z,8.10
2023-03-13T00:23:05.911Z,8.93
2023-03-13T00:23:17.998Z,9.50
2023-03-13T00:23:30.050Z,9.38
2023-03-13T00:23:42.262Z,9.02
2023-03-13T00:23:54.655Z,8.80
2023-03-13T00:24:07.922Z,8.68
2023-03-13T00:24:19.881Z,10.30
2023-03-13T00:24:31.898Z,9.95
2023-03-13T00:24:45.580Z,8.40
2023-03-13T00:24:58.845Z,6.95
2023-03-13T00:25:10.726Z,8.35
2023-03-13T00:25:22.707Z,7.35
2023-03-13T00:25:34.693Z,8.50
2023-03-13T00:25:46.664Z,7.45
2023-03-13T00:26:09.981Z,8.23
2023-03-13T00:26:26.562Z,7.50
2023-03-13T00:26:38.614Z,8.38
2023-03-13T00:26:50.585Z,7.78
2023-03-13T00:27:04.706Z,6.45
2023-03-13T00:27:16.595Z,5.13
2023-03-13T00:27:32.723Z,5.90
2023-03-13T00:27:44.708Z,6.43
2023-03-13T00:27:56.815Z,6.65
2023-03-13T00:28:08.949Z,7.93
2023-03-13T00:28:20.867Z,9.13
2023-03-13T00:28:34.753Z,8.07
2023-03-13T00:28:47.475Z,7.15
2023-03-13T00:28:59.881Z,7.28
2023-03-13T00:29:11.786Z,9.38
2023-03-13T00:29:23.800Z,9.93
2023-03-13T00:29:35.845Z,8.77
2023-03-13T00:29:47.791Z,7.28
2023-03-13T00:29:59.729Z,7.07
2023-03-13T00:30:12.204Z,7.10
2023-03-13T00:30:24.248Z,7.50
2023-03-13T00:30:36.159Z,7.78
2023-03-13T00:30:48.099Z,7.15
2023-03-13T00:31:08.231Z,9.43
2023-03-13T00:31:23.271Z,10.30
2023-03-13T00:31:35.435Z,9.25
2023-03-13T00:31:47.659Z,9.15
2023-03-13T00:32:00.961Z,9.18
2023-03-13T00:32:12.988Z,8.90
2023-03-13T00:32:25.023Z,7.53
2023-03-13T00:32:44.945Z,9.27
2023-03-13T00:32:57.062Z,9.13
2023-03-13T00:33:09.011Z,10.75
2023-03-13T00:33:20.932Z,10.30
2023-03-13T00:33:34.219Z,8.98
2023-03-13T00:33:48.932Z,9.18
2023-03-13T00:34:02.892Z,9.27
2023-03-13T00:34:15.014Z,7.57
2023-03-13T00:34:27.631Z,9.68
2023-03-13T00:34:39.702Z,10.93
2023-03-13T00:34:51.655Z,10.68
2023-03-13T00:35:03.878Z,9.88
2023-03-13T00:35:16.111Z,10.90
2023-03-13T00:35:28.044Z,10.27
2023-03-13T00:35:39.969Z,8.63
2023-03-13T00:35:51.912Z,6.72
2023-03-13T00:36:07.353Z,6.85
2023-03-13T00:36:21.935Z,8.75
2023-03-13T00:36:35.478Z,9.35
2023-03-13T00:36:47.457Z,8.05
2023-03-13T00:36:59.451Z,7.35
2023-03-13T00:37:11.426Z,9.00
2023-03-13T00:37:23.496Z,8.02
2023-03-13T00:37:35.605Z,5.82
2023-03-13T00:37:47.786Z,8.63
2023-03-13T00:37:59.709Z,11.40
2023-03-13T00:38:11.635Z,10.18
2023-03-13T00:38:23.518Z,7.07
2023-03-13T00:38:35.534Z,6.90
2023-03-13T00:38:47.904Z,9.05
2023-03-13T00:39:00.374Z,10.80
2023-03-13T00:39:12.306Z,10.55
2023-03-13T00:39:24.265Z,11.82
2023-03-13T00:39:36.217Z,10.52
2023-03-13T00:39:48.257Z,9.50
2023-03-13T00:40:00.160Z,7.50
2023-03-13T00:40:12.570Z,7.15
2023-03-13T00:40:24.492Z,10.90
2023-03-13T00:40:36.796Z,10.63
2023-03-13T00:40:48.686Z,8.00
2023-03-13T00:41:05.007Z,8.38
2023-03-13T00:41:20.179Z,11.10
2023-03-13T00:41:33.193Z,10.63
2023-03-13T00:41:45.261Z,12.38
2023-03-13T00:41:57.200Z,11.20
2023-03-13T00:42:09.138Z,11.55
2023-03-13T00:42:24.080Z,10.63
2023-03-13T00:42:39.260Z,7.70
2023-03-13T00:42:51.211Z,7.25
2023-03-13T00:43:03.206Z,9.23
2023-03-13T00:43:15.110Z,10.07
2023-03-13T00:43:30.192Z,10.13
2023-03-13T00:43:43.465Z,9.55
2023-03-13T00:43:55.832Z,9.88
2023-03-13T00:44:08.301Z,10.77
2023-03-13T00:44:20.211Z,10.32
2023-03-13T00:44:32.183Z,11.60
2023-03-13T00:44:44.163Z,9.73
2023-03-13T00:44:56.125Z,10.75
2023-03-13T00:45:08.437Z,10.50
2023-03-13T00:45:20.431Z,11.10
2023-03-13T00:45:32.371Z,11.07
2023-03-13T00:45:44.352Z,11.35
2023-03-13T00:45:56.966Z,11.55
2023-03-13T00:46:10.096Z,9.23
2023-03-13T00:46:24.474Z,11.35
2023-03-13T00:46:36.610Z,13.73
2023-03-13T00:46:48.555Z,12.95
2023-03-13T00:47:00.506Z,9.45
2023-03-13T00:47:12.402Z,9.77
2023-03-13T00:47:24.409Z,10.25
2023-03-13T00:47:36.344Z,11.27
2023-03-13T00:47:49.947Z,11.73
2023-03-13T00:48:01.895Z,9.77
2023-03-13T00:48:13.788Z,9.27
2023-03-13T00:48:26.082Z,10.48
2023-03-13T00:48:38.339Z,10.73
2023-03-13T00:48:50.999Z,12.18
2023-03-13T00:49:03.351Z,11.55
2023-03-13T00:49:15.308Z,10.20
2023-03-13T00:49:27.318Z,10.52
2023-03-13T00:49:39.301Z,10.48
2023-03-13T00:49:51.352Z,9.93
2023-03-13T00:50:03.454Z,9.73
2023-03-13T00:50:15.754Z,9.95
2023-03-13T00:50:27.699Z,9.95
2023-03-13T00:50:39.647Z,10.02
2023-03-13T00:50:51.973Z,9.50
2023-03-13T00:51:05.022Z,9.57
2023-03-13T00:51:18.702Z,9.70
2023-03-13T00:51:31.190Z,8.32
2023-03-13T00:51:43.198Z,7.43
2023-03-13T00:51:55.137Z,7.57
2023-03-13T00:52:07.291Z,7.97
2023-03-13T00:52:19.218Z,8.18
2023-03-13T00:52:31.159Z,8.35
2023-03-13T00:52:43.173Z,8.50
2023-03-13T00:52:55.109Z,8.63
2023-03-13T00:53:06.986Z,9.88
2023-03-13T00:53:19.352Z,9.52
2023-03-13T00:53:32.172Z,8.60
2023-03-13T00:53:44.836Z,7.93
2023-03-13T00:54:00.375Z,8.38
2023-03-13T00:54:12.372Z,8.85
2023-03-13T00:54:24.283Z,8.43
2023-03-13T00:54:36.181Z,9.00
2023-03-13T00:54:48.092Z,7.55
2023-03-13T00:55:00.149Z,6.18
2023-03-13T00:55:12.224Z,8.10
2023-03-13T00:55:24.134Z,10.90
2023-03-13T00:55:36.183Z,12.63
2023-03-13T00:56:15.499Z,10.75
2023-03-13T00:56:30.633Z,7.22
2023-03-13T00:56:42.585Z,6.60
2023-03-13T00:56:54.584Z,7.50
2023-03-13T00:57:06.519Z,7.28
2023-03-13T00:57:18.445Z,6.45
2023-03-13T00:57:30.355Z,7.22
2023-03-13T00:57:42.248Z,7.55
2023-03-13T00:57:54.113Z,8.75
2023-03-13T00:58:06.107Z,7.78
2023-03-13T00:58:18.044Z,8.57
2023-03-13T00:58:32.499Z,7.63
2023-03-13T00:58:46.128Z,8.00
2023-03-13T00:58:59.904Z,8.60
2023-03-13T00:59:11.838Z,7.37
2023-03-13T00:59:23.894Z,6.68
2023-03-13T00:59:35.834Z,7.50
2023-03-13T00:59:47.725Z,8.48
2023-03-13T00:59:59.768Z,8.60
2023-03-13T01:00:12.263Z,10.95
2023-03-13T01:00:24.252Z,11.55
2023-03-13T01:00:36.171Z,8.70
2023-03-13T01:00:48.166Z,7.15
2023-03-13T01:01:12.086Z,6.70
2023-03-13T01:01:32.745Z,6.20
2023-03-13T01:01:44.778Z,9.27
2023-03-13T01:01:56.827Z,10.15
2023-03-13T01:02:08.987Z,7.82
2023-03-13T01:02:21.371Z,8.43
2023-03-13T01:02:33.498Z,7.72
2023-03-13T01:02:45.748Z,6.82
2023-03-13T01:02:57.793Z,7.05
2023-03-13T01:03:10.038Z,7.10
2023-03-13T01:03:25.519Z,8.87
2023-03-13T01:03:38.232Z,10.52
2023-03-13T01:03:56.502Z,9.05
2023-03-13T01:04:11.049Z,7.32
2023-03-13T01:04:23.013Z,7.75
2023-03-13T01:04:34.942Z,7.63
2023-03-13T01:04:46.834Z,8.57
2023-03-13T01:05:00.108Z,7.82
2023-03-13T01:05:13.359Z,10.02
2023-03-13T01:05:25.312Z,8.82
2023-03-13T01:05:37.316Z,9.45
2023-03-13T01:06:00.180Z,8.73
2023-03-13T01:06:14.970Z,10.02
2023-03-13T01:06:29.805Z,7.20
2023-03-13T01:06:42.947Z,7.60
2023-03-13T01:06:55.016Z,8.02
2023-03-13T01:07:07.066Z,9.15
2023-03-13T01:07:18.990Z,8.13
2023-03-13T01:07:33.925Z,7.50
2023-03-13T01:07:45.888Z,7.55
2023-03-13T01:07:57.829Z,7.25
2023-03-13T01:08:09.782Z,7.90
2023-03-13T01:08:21.825Z,8.43
2023-03-13T01:08:34.474Z,9.07
2023-03-13T01:08:46.899Z,8.18
2023-03-13T01:08:59.693Z,7.18
2023-03-13T01:09:14.392Z,8.07
2023-03-13T01:09:26.336Z,7.68
2023-03-13T01:09:38.259Z,6.88
2023-03-13T01:09:50.222Z,6.45
2023-03-13T01:10:02.094Z,7.70
2023-03-13T01:10:14.061Z,9.60
2023-03-13T01:10:25.987Z,10.02
2023-03-13T01:10:37.977Z,12.40
2023-03-13T01:10:50.454Z,10.05
2023-03-13T01:11:06.315Z,7.43
2023-03-13T01:11:21.805Z,7.80
2023-03-13T01:11:38.988Z,9.38
2023-03-13T01:11:51.102Z,9.50
2023-03-13T01:12:03.162Z,9.02
2023-03-13T01:12:15.215Z,10.18
2023-03-13T01:12:27.178Z,8.88
2023-03-13T01:12:39.111Z,8.52
2023-03-13T01:12:51.053Z,7.47
2023-03-13T01:13:04.932Z,6.95
2023-03-13T01:13:16.862Z,7.05
2023-03-13T01:13:30.608Z,7.70
2023-03-13T01:13:42.901Z,6.75
2023-03-13T01:13:56.721Z,6.97
2023-03-13T01:14:12.215Z,7.80
2023-03-13T01:14:24.158Z,9.10
2023-03-13T01:14:36.192Z,9.95
2023-03-13T01:14:50.333Z,7.85
2023-03-13T01:15:02.301Z,10.48
2023-03-13T01:15:14.263Z,10.43
2023-03-13T01:15:26.346Z,10.13
2023-03-13T01:15:38.304Z,8.85
2023-03-13T01:15:50.330Z,9.85
2023-03-13T01:16:07.834Z,9.00
2023-03-13T01:16:21.631Z,6.18
2023-03-13T01:16:35.696Z,6.70
2023-03-13T01:16:47.686Z,9.57
2023-03-13T01:16:59.782Z,10.32
2023-03-13T01:17:11.750Z,9.20
2023-03-13T01:17:23.729Z,8.63
2023-03-13T01:17:35.678Z,9.85
2023-03-13T01:17:47.832Z,9.80
2023-03-13T01:17:59.781Z,8.88
2023-03-13T01:18:13.738Z,7.07
2023-03-13T01:18:25.686Z,7.50
2023-03-13T01:18:39.927Z,7.38
2023-03-13T01:18:54.578Z,8.95
2023-03-13T01:19:12.938Z,8.60
2023-03-13T01:19:26.905Z,6.53
2023-03-13T01:19:38.790Z,7.20
2023-03-13T01:19:50.886Z,6.25
2023-03-13T01:20:03.258Z,8.93
2023-03-13T01:20:15.211Z,9.82
2023-03-13T01:20:29.692Z,8.23
2023-03-13T01:20:41.922Z,9.90
2023-03-13T01:20:53.871Z,9.75
2023-03-13T01:21:09.486Z,9.25
2023-03-13T01:21:23.038Z,9.27
2023-03-13T01:21:35.846Z,8.15
2023-03-13T01:21:48.013Z,9.45
2023-03-13T01:21:59.932Z,8.85
2023-03-13T01:22:12.665Z,8.50
2023-03-13T01:22:24.695Z,8.07
2023-03-13T01:22:36.773Z,6.25
2023-03-13T01:22:48.650Z,6.25
2023-03-13T01:23:00.819Z,7.13
2023-03-13T01:23:12.815Z,8.60
2023-03-13T01:23:25.726Z,8.80
2023-03-13T01:23:37.759Z,7.80
2023-03-13T01:23:51.320Z,6.18
2023-03-13T01:24:03.963Z,8.68
2023-03-13T01:24:16.962Z,10.25
2023-03-13T01:24:28.998Z,7.97
2023-03-13T01:24:40.941Z,7.80
2023-03-13T01:24:54.056Z,7.13
2023-03-13T01:25:06.535Z,6.75
2023-03-13T01:25:18.514Z,8.07
2023-03-13T01:25:30.430Z,8.65
2023-03-13T01:25:42.412Z,6.20
2023-03-13T01:25:55.970Z,5.40
2023-03-13T01:26:09.148Z,9.55
2023-03-13T01:26:22.413Z,11.23
2023-03-13T01:26:34.367Z,9.38
2023-03-13T01:26:46.420Z,9.27
2023-03-13T01:26:58.394Z,8.50
2023-03-13T01:27:10.567Z,7.97
2023-03-13T01:27:25.374Z,7.38
2023-03-13T01:27:37.376Z,7.05
2023-03-13T01:27:49.317Z,6.40
2023-03-13T01:28:01.302Z,6.13
2023-03-13T01:28:13.322Z,9.07
2023-03-13T01:28:26.776Z,10.85
2023-03-13T01:28:42.702Z,8.95
2023-03-13T01:28:55.694Z,8.93
2023-03-13T01:29:08.029Z,10.43
2023-03-13T01:29:19.969Z,8.43
2023-03-13T01:29:32.192Z,5.80
2023-03-13T01:29:44.171Z,6.00
2023-03-13T01:29:56.155Z,7.22
2023-03-13T01:30:08.960Z,6.50
2023-03-13T01:30:20.912Z,7.00
2023-03-13T01:30:32.943Z,8.23
2023-03-13T01:30:45.038Z,8.07
2023-03-13T01:30:57.225Z,6.53
2023-03-13T01:31:19.673Z,6.85
2023-03-13T01:31:34.457Z,7.07
2023-03-13T01:31:46.436Z,5.85
2023-03-13T01:31:58.336Z,5.95
2023-03-13T01:32:10.487Z,7.43
2023-03-13T01:32:22.663Z,6.65
2023-03-13T01:32:34.727Z,6.82
2023-03-13T01:32:46.812Z,6.40
2023-03-13T01:32:58.861Z,7.07
2023-03-13T01:33:11.193Z,7.32
2023-03-13T01:33:23.173Z,5.80
2023-03-13T01:33:35.156Z,7.05
2023-03-13T01:33:49.131Z,7.28
2023-03-13T01:34:04.812Z,6.65
2023-03-13T01:34:16.861Z,6.97
2023-03-13T01:34:29.779Z,6.35
2023-03-13T01:34:41.693Z,5.93
2023-03-13T01:34:53.847Z,5.50
2023-03-13T01:35:06.246Z,6.75
2023-03-13T01:35:19.510Z,9.32
2023-03-13T01:35:31.909Z,10.20
2023-03-13T01:35:44.187Z,9.32
2023-03-13T01:36:02.253Z,6.90
2023-03-13T01:36:15.027Z,8.48
2023-03-13T01:36:28.251Z,9.32
2023-03-13T01:36:40.186Z,7.32
2023-03-13T01:36:52.309Z,5.70
2023-03-13T01:37:04.332Z,4.93
2023-03-13T01:37:16.283Z,5.68
2023-03-13T01:37:28.226Z,6.72
2023-03-13T01:37:40.238Z,7.03
2023-03-13T01:37:52.144Z,7.70
2023-03-13T01:38:04.146Z,7.22
2023-03-13T01:38:16.187Z,6.55
2023-03-13T01:38:28.280Z,5.72
2023-03-13T01:38:40.664Z,5.57
2023-03-13T01:38:55.116Z,11.98
2023-03-13T01:39:07.322Z,13.50
2023-03-13T01:39:19.316Z,10.05
2023-03-13T01:39:31.281Z,7.22
2023-03-13T01:39:43.335Z,6.72
2023-03-13T01:39:55.391Z,7.03
2023-03-13T01:40:07.765Z,8.10
2023-03-13T01:40:19.963Z,8.93
2023-03-13T01:40:38.592Z,7.60
2023-03-13T01:40:50.604Z,6.35
2023-03-13T01:41:03.967Z,7.53
2023-03-13T01:41:16.493Z,7.93
2023-03-13T01:41:30.465Z,7.85
2023-03-13T01:41:42.420Z,6.70
2023-03-13T01:41:54.358Z,6.43
2023-03-13T01:42:06.827Z,4.60
2023-03-13T01:42:18.775Z,3.97
2023-03-13T01:42:30.733Z,6.65
2023-03-13T01:42:53.293Z,8.30
2023-03-13T01:43:26.149Z,6.90
2023-03-13T01:43:39.170Z,9.50
2023-03-13T01:43:51.757Z,7.63
2023-03-13T01:44:03.997Z,8.05
2023-03-13T01:44:25.532Z,7.28
2023-03-13T01:44:57.931Z,6.63
2023-03-13T01:45:48.613Z,7.53
2023-03-13T01:46:03.503Z,7.13
2023-03-13T01:46:29.347Z,6.63
2023-03-13T01:46:41.381Z,7.85
2023-03-13T01:46:53.319Z,8.55
2023-03-13T01:47:05.669Z,7.95
2023-03-13T01:47:17.656Z,6.53
2023-03-13T01:47:29.623Z,6.20
2023-03-13T01:47:41.529Z,7.30
2023-03-13T01:47:53.469Z,7.43
2023-03-13T01:48:05.805Z,6.68
2023-03-13T01:48:17.793Z,5.45
2023-03-13T01:49:00.756Z,6.07
2023-03-13T01:49:20.690Z,6.10
2023-03-13T01:49:34.620Z,8.45
2023-03-13T01:49:48.899Z,9.38
2023-03-13T01:50:00.897Z,8.63
2023-03-13T01:50:12.957Z,6.55
2023-03-13T01:50:24.998Z,5.30
2023-03-13T01:50:36.943Z,6.45
2023-03-13T01:50:48.977Z,8.63
2023-03-13T01:51:06.949Z,8.80
2023-03-13T01:51:27.415Z,8.30
2023-03-13T01:51:47.588Z,7.88
2023-03-13T01:52:06.746Z,5.72
2023-03-13T01:52:28.845Z,5.75
2023-03-13T01:52:41.060Z,5.53
2023-03-13T01:52:53.265Z,6.00
2023-03-13T01:53:05.328Z,4.88
2023-03-13T01:53:17.277Z,6.80
2023-03-13T01:53:33.916Z,8.20
2023-03-13T01:53:52.843Z,7.05
2023-03-13T01:54:09.639Z,7.47
2023-03-13T01:54:43.505Z,6.75
2023-03-13T01:55:03.101Z,5.55
2023-03-13T01:55:17.485Z,5.68
2023-03-13T01:55:29.498Z,5.07
2023-03-13T01:55:41.781Z,5.00
2023-03-13T01:55:55.645Z,6.25
2023-03-13T01:56:17.139Z,7.05
2023-03-13T01:56:47.566Z,7.55
2023-03-13T01:57:33.422Z,4.13
2023-03-13T01:57:50.841Z,7.28
2023-03-13T01:58:03.641Z,8.43
2023-03-13T01:58:15.643Z,7.30
2023-03-13T01:58:29.921Z,7.13
2023-03-13T01:58:42.563Z,6.07
2023-03-13T01:58:57.732Z,5.85
2023-03-13T01:59:13.936Z,6.95
2023-03-13T01:59:32.493Z,8.02
2023-03-13T01:59:49.579Z,6.30
2023-03-13T02:00:08.847Z,4.72
2023-03-13T02:00:24.997Z,7.20
2023-03-13T02:00:38.026Z,8.35
2023-03-13T02:00:50.258Z,8.23
2023-03-13T02:01:03.585Z,9.52
2023-03-13T02:01:16.758Z,9.02
2023-03-13T02:01:29.601Z,7.63
2023-03-13T02:01:44.182Z,7.57
2023-03-13T02:02:00.404Z,7.65
2023-03-13T02:02:13.921Z,7.40
2023-03-13T02:02:26.776Z,7.97
2023-03-13T02:02:41.476Z,7.28
2023-03-13T02:02:56.891Z,4.75
2023-03-13T02:03:13.564Z,4.55
2023-03-13T02:03:26.722Z,6.40
2023-03-13T02:03:38.862Z,6.95
2023-03-13T02:03:51.402Z,6.63
2023-03-13T02:04:04.536Z,4.43
2023-03-13T02:04:20.582Z,5.80
2023-03-13T02:04:38.389Z,7.20
2023-03-13T02:04:56.535Z,6.50
2023-03-13T02:05:09.274Z,6.68
2023-03-13T02:05:27.457Z,7.00
2023-03-13T02:05:41.571Z,6.93
2023-03-13T02:05:54.768Z,6.65
2023-03-13T02:06:08.179Z,5.75
2023-03-13T02:06:20.227Z,5.85
2023-03-13T02:06:35.299Z,6.95
2023-03-13T02:06:49.999Z,7.50
2023-03-13T02:07:06.773Z,7.05
2023-03-13T02:07:26.689Z,7.18
2023-03-13T02:07:46.397Z,5.25
2023-03-13T02:08:07.848Z,5.70
2023-03-13T02:08:35.983Z,9.82
2023-03-13T02:08:57.157Z,6.32
2023-03-13T02:09:19.893Z,5.15
2023-03-13T02:09:34.362Z,8.18
2023-03-13T02:09:52.047Z,5.20
2023-03-13T02:10:04.549Z,4.10
2023-03-13T02:10:22.125Z,5.38
2023-03-13T02:10:39.471Z,5.50
2023-03-13T02:10:58.509Z,5.00
2023-03-13T02:11:21.936Z,5.80
2023-03-13T02:11:45.661Z,5.63
2023-03-13T02:12:05.140Z,5.40
2023-03-13T02:12:24.259Z,6.63
2023-03-13T02:12:40.581Z,7.45
2023-03-13T02:12:53.862Z,6.18
2023-03-13T02:13:05.812Z,5.88
2023-03-13T02:13:20.892Z,6.47
2023-03-13T02:13:34.974Z,5.68
2023-03-13T02:13:50.112Z,4.20
2023-03-13T02:14:04.572Z,6.28
2023-03-13T02:14:22.293Z,6.50
2023-03-13T02:14:38.381Z,5.55
2023-03-13T02:14:50.628Z,7.53
2023-03-13T02:15:09.911Z,9.45
2023-03-13T02:15:25.054Z,10.10
2023-03-13T02:15:37.243Z,8.45
2023-03-13T02:15:50.026Z,7.70
2023-03-13T02:16:02.668Z,6.43
2023-03-13T02:16:15.162Z,6.15
2023-03-13T02:16:28.183Z,5.40
2023-03-13T02:16:40.729Z,4.40
2023-03-13T02:16:53.681Z,3.92
2023-03-13T02:17:07.068Z,5.75
2023-03-13T02:17:19.229Z,6.75
2023-03-13T02:17:33.374Z,6.90
2023-03-13T02:17:47.307Z,7.72
2023-03-13T02:18:00.686Z,7.03
2023-03-13T02:18:13.583Z,5.90
2023-03-13T02:18:26.525Z,6.25
2023-03-13T02:18:38.856Z,6.60
2023-03-13T02:18:50.884Z,7.15
2023-03-13T02:19:16.017Z,5.70
2023-03-13T02:19:35.951Z,6.57
2023-03-13T02:19:51.907Z,4.85
2023-03-13T02:20:05.124Z,5.43
2023-03-13T02:20:22.221Z,6.40
2023-03-13T02:20:34.284Z,6.20
2023-03-13T02:20:49.283Z,5.57
2023-03-13T02:21:14.469Z,5.65
2023-03-13T02:22:01.289Z,6.17
2023-03-13T02:22:21.945Z,4.30
2023-03-13T02:22:33.822Z,4.45
2023-03-13T02:23:09.995Z,3.97
2023-03-13T02:23:32.056Z,5.65
2023-03-13T02:23:56.271Z,4.93
2023-03-13T02:24:34.890Z,6.60
2023-03-13T02:24:56.908Z,3.50
2023-03-13T02:25:17.858Z,5.55
2023-03-13T02:25:35.711Z,5.93
2023-03-13T02:25:53.613Z,4.43
2023-03-13T02:26:06.502Z,4.22
2023-03-13T02:26:18.618Z,3.95
2023-03-13T02:26:30.880Z,3.88
2023-03-13T02:26:42.944Z,5.30
2023-03-13T02:26:55.095Z,7.75
2023-03-13T02:27:07.589Z,6.95
2023-03-13T02:27:19.655Z,6.00
2023-03-13T02:27:31.953Z,6.22
2023-03-13T02:27:46.110Z,10.73
2023-03-13T02:28:06.295Z,10.07
2023-03-13T02:28:25.144Z,6.57
2023-03-13T02:28:39.283Z,9.55
2023-03-13T02:28:51.396Z,7.07
2023-03-13T02:29:03.451Z,5.88
2023-03-13T02:29:18.478Z,4.50
2023-03-13T02:29:31.003Z,7.95
2023-03-13T02:29:43.106Z,7.15
2023-03-13T02:29:55.346Z,5.82
2023-03-13T02:30:09.812Z,5.53
2023-03-13T02:30:22.313Z,4.93
2023-03-13T02:30:35.015Z,4.22
2023-03-13T02:30:49.722Z,4.38
2023-03-13T02:31:01.910Z,4.72
2023-03-13T02:31:13.914Z,3.95
2023-03-13T02:31:27.210Z,4.28
2023-03-13T02:31:39.466Z,4.15
2023-03-13T02:31:52.333Z,5.28
2023-03-13T02:32:04.725Z,4.50
2023-03-13T02:32:16.787Z,4.60
2023-03-13T02:32:30.446Z,5.22
2023-03-13T02:32:43.523Z,7.38
2023-03-13T02:32:55.753Z,7.05
2023-03-13T02:33:07.799Z,5.75
2023-03-13T02:33:21.251Z,5.15
2023-03-13T02:33:38.598Z,4.88
2023-03-13T02:33:50.648Z,4.90
2023-03-13T02:34:03.756Z,5.57
2023-03-13T02:34:20.490Z,5.43
2023-03-13T02:34:35.538Z,5.45
2023-03-13T02:34:51.515Z,4.95
2023-03-13T02:35:08.877Z,4.57
2023-03-13T02:35:23.442Z,4.82
2023-03-13T02:35:36.650Z,5.63
2023-03-13T02:35:49.666Z,5.75
2023-03-13T02:36:03.200Z,6.57
2023-03-13T02:36:17.026Z,5.65
2023-03-13T02:36:30.998Z,5.55
2023-03-13T02:36:44.883Z,4.38
2023-03-13T02:36:58.316Z,5.00
2023-03-13T02:37:12.902Z,6.40
2023-03-13T02:37:28.602Z,5.82
2023-03-13T02:37:44.454Z,5.38
2023-03-13T02:38:01.483Z,5.97
2023-03-13T02:38:25.799Z,5.47
2023-03-13T02:38:50.045Z,5.80
2023-03-13T02:39:05.830Z,5.05
2023-03-13T02:39:24.313Z,6.07
2023-03-13T02:39:39.153Z,5.18
2023-03-13T02:39:51.721Z,6.13
2023-03-13T02:40:11.166Z,6.28
2023-03-13T02:40:33.234Z,6.20
2023-03-13T02:40:48.551Z,4.75
2023-03-13T02:41:02.585Z,4.35
2023-03-13T02:41:15.932Z,5.75
2023-03-13T02:41:28.981Z,5.65
2023-03-13T02:41:43.292Z,6.10
2023-03-13T02:41:55.991Z,5.85
2023-03-13T02:42:09.260Z,5.97
2023-03-13T02:42:22.897Z,5.75
2023-03-13T02:42:36.765Z,5.70
2023-03-13T02:42:50.630Z,5.03
2023-03-13T02:43:09.074Z,4.45
2023-03-13T02:43:29.342Z,5.75
2023-03-13T02:43:41.329Z,4.68
2023-03-13T02:43:53.221Z,5.25
2023-03-13T02:44:06.210Z,5.28
2023-03-13T02:44:18.383Z,5.13
2023-03-13T02:44:30.434Z,4.95
2023-03-13T02:44:44.411Z,4.43
2023-03-13T02:44:56.448Z,3.65
2023-03-13T02:45:09.368Z,5.13
2023-03-13T02:45:21.514Z,5.85
2023-03-13T02:45:33.457Z,5.38
2023-03-13T02:46:01.873Z,5.20
2023-03-13T02:46:17.878Z,5.55
2023-03-13T02:46:30.174Z,4.07
2023-03-13T02:46:47.362Z,2.90
2023-03-13T02:47:28.611Z,6.22
2023-03-13T02:47:40.502Z,5.20
2023-03-13T02:47:52.496Z,4.68
2023-03-13T02:48:04.573Z,4.90
2023-03-13T02:48:16.510Z,5.57
2023-03-13T02:48:33.146Z,5.60
2023-03-13T02:48:47.979Z,5.75
2023-03-13T02:49:19.702Z,6.40
2023-03-13T02:49:32.055Z,5.97
2023-03-13T02:49:43.985Z,6.30
2023-03-13T02:49:55.958Z,7.03
2023-03-13T02:50:09.990Z,6.85
2023-03-13T02:50:22.177Z,5.22
2023-03-13T02:50:36.246Z,5.85
2023-03-13T02:50:48.331Z,6.47
2023-03-13T02:51:03.697Z,6.18
2023-03-13T02:51:41.728Z,4.25
2023-03-13T02:51:56.947Z,4.65
2023-03-13T02:52:24.896Z,5.15
2023-03-13T02:52:42.026Z,4.18
2023-03-13T02:53:03.235Z,5.60
2023-03-13T02:53:15.185Z,6.43
2023-03-13T02:53:27.509Z,7.70
2023-03-13T02:53:39.578Z,7.72
2023-03-13T02:53:58.692Z,5.18
2023-03-13T02:54:14.080Z,4.72
2023-03-13T02:54:34.031Z,4.93
2023-03-13T02:54:50.533Z,4.75
2023-03-13T02:55:07.027Z,4.20
2023-03-13T02:55:30.129Z,5.38
2023-03-13T02:55:42.637Z,5.25
2023-03-13T02:55:55.049Z,5.38
2023-03-13T02:56:07.387Z,4.85
2023-03-13T02:56:22.872Z,4.53
2023-03-13T02:56:37.684Z,5.68
2023-03-13T02:56:54.666Z,6.90
2023-03-13T02:57:07.241Z,6.53
2023-03-13T02:57:19.222Z,5.07
2023-03-13T02:57:31.858Z,5.65
2023-03-13T02:57:44.321Z,5.18
2023-03-13T02:57:56.325Z,4.97
2023-03-13T02:58:08.473Z,5.25
2023-03-13T02:58:20.370Z,6.38
2023-03-13T02:58:49.910Z,5.57
2023-03-13T02:59:02.450Z,4.00
2023-03-13T02:59:14.949Z,4.07
2023-03-13T02:59:27.284Z,4.75
2023-03-13T02:59:39.365Z,5.07
2023-03-13T02:59:51.273Z,6.03
2023-03-13T03:00:07.200Z,5.70
2023-03-13T03:00:19.828Z,5.78
2023-03-13T03:00:31.869Z,5.97
2023-03-13T03:00:43.851Z,6.15
2023-03-13T03:00:55.886Z,7.30
2023-03-13T03:01:08.220Z,6.82
2023-03-13T03:01:20.262Z,5.57
2023-03-13T03:01:32.793Z,4.10
2023-03-13T03:01:44.884Z,5.07
2023-03-13T03:01:57.133Z,5.10
2023-03-13T03:02:09.109Z,6.72
2023-03-13T03:02:21.085Z,5.47
2023-03-13T03:02:33.050Z,4.53
2023-03-13T03:02:45.400Z,5.55
2023-03-13T03:02:57.290Z,5.43
2023-03-13T03:03:09.314Z,5.72
2023-03-13T03:03:21.241Z,5.50
2023-03-13T03:03:35.827Z,5.75
2023-03-13T03:03:48.791Z,4.60
2023-03-13T03:04:00.822Z,5.10
2023-03-13T03:04:13.056Z,5.03
2023-03-13T03:04:26.849Z,5.30
2023-03-13T03:04:38.892Z,4.97
2023-03-13T03:04:50.903Z,6.95
2023-03-13T03:05:02.967Z,7.72
2023-03-13T03:05:14.931Z,7.18
2023-03-13T03:05:27.014Z,5.82
2023-03-13T03:05:38.961Z,7.80
2023-03-13T03:05:50.864Z,8.30
2023-03-13T03:06:04.818Z,7.53